sensor_id;sensor_type;location;lat;lon;timestamp;P1;durP1;ratioP1;P2;durP2;ratioP2
51724;SDS011;37801;53.224;6.552;2022-10-31T00:02:00;21.50;;;10.82;;
51724;SDS011;37801;53.224;6.552;2022-10-31T00:04:26;18.30;;;10.15;;
51724;SDS011;37801;53.224;6.552;2022-10-31T00:06:51;17.85;;;10.43;;
51724;SDS011;37801;53.224;6.552;2022-10-31T00:09:17;16.70;;;10.45;;
51724;SDS011;37801;53.224;6.552;2022-10-31T00:11:43;21.80;;;11.30;;
51724;SDS011;37801;53.224;6.552;2022-10-31T00:14:08;16.20;;;9.52;;
51724;SDS011;37801;53.224;6.552;2022-10-31T00:16:34;18.40;;;10.95;;
51724;SDS011;37801;53.224;6.552;2022-10-31T00:19:01;19.92;;;11.38;;
51724;SDS011;37801;53.224;6.552;2022-10-31T00:21:28;19.48;;;11.70;;
51724;SDS011;37801;53.224;6.552;2022-10-31T00:23:55;19.45;;;11.60;;
51724;SDS011;37801;53.224;6.552;2022-10-31T00:26:22;20.67;;;11.32;;
51724;SDS011;37801;53.224;6.552;2022-10-31T00:28:48;20.17;;;11.85;;
51724;SDS011;37801;53.224;6.552;2022-10-31T00:31:14;19.50;;;11.57;;
51724;SDS011;37801;53.224;6.552;2022-10-31T00:33:40;16.60;;;11.75;;
51724;SDS011;37801;53.224;6.552;2022-10-31T00:36:06;24.75;;;11.80;;
51724;SDS011;37801;53.224;6.552;2022-10-31T00:38:35;22.48;;;12.25;;
51724;SDS011;37801;53.224;6.552;2022-10-31T00:41:01;20.27;;;11.68;;
51724;SDS011;37801;53.224;6.552;2022-10-31T00:43:27;19.80;;;12.35;;
51724;SDS011;37801;53.224;6.552;2022-10-31T00:45:52;20.58;;;12.50;;
51724;SDS011;37801;53.224;6.552;2022-10-31T00:48:18;20.17;;;12.77;;
51724;SDS011;37801;53.224;6.552;2022-10-31T00:50:44;20.67;;;12.63;;
51724;SDS011;37801;53.224;6.552;2022-10-31T00:53:10;19.75;;;12.52;;
51724;SDS011;37801;53.224;6.552;2022-10-31T00:55:36;26.67;;;13.93;;
51724;SDS011;37801;53.224;6.552;2022-10-31T00:58:01;19.30;;;12.85;;
51724;SDS011;37801;53.224;6.552;2022-10-31T01:00:27;20.13;;;12.60;;
51724;SDS011;37801;53.224;6.552;2022-10-31T01:02:53;20.60;;;12.82;;
51724;SDS011;37801;53.224;6.552;2022-10-31T01:05:18;21.45;;;13.25;;
51724;SDS011;37801;53.224;6.552;2022-10-31T01:07:45;20.15;;;13.00;;
51724;SDS011;37801;53.224;6.552;2022-10-31T01:10:11;22.92;;;13.57;;
51724;SDS011;37801;53.224;6.552;2022-10-31T01:12:37;21.45;;;13.57;;
51724;SDS011;37801;53.224;6.552;2022-10-31T01:15:08;21.23;;;13.13;;
51724;SDS011;37801;53.224;6.552;2022-10-31T01:17:36;21.13;;;13.52;;
51724;SDS011;37801;53.224;6.552;2022-10-31T01:20:03;20.35;;;12.88;;
51724;SDS011;37801;53.224;6.552;2022-10-31T01:22:29;25.00;;;13.60;;
51724;SDS011;37801;53.224;6.552;2022-10-31T01:24:55;18.98;;;12.60;;
51724;SDS011;37801;53.224;6.552;2022-10-31T01:27:21;22.42;;;12.57;;
51724;SDS011;37801;53.224;6.552;2022-10-31T01:29:47;19.88;;;12.10;;
51724;SDS011;37801;53.224;6.552;2022-10-31T01:32:12;18.73;;;12.23;;
51724;SDS011;37801;53.224;6.552;2022-10-31T01:34:38;18.08;;;12.18;;
51724;SDS011;37801;53.224;6.552;2022-10-31T01:37:04;17.17;;;11.93;;
51724;SDS011;37801;53.224;6.552;2022-10-31T01:39:29;18.80;;;12.32;;
51724;SDS011;37801;53.224;6.552;2022-10-31T01:41:55;17.67;;;12.75;;
51724;SDS011;37801;53.224;6.552;2022-10-31T01:46:48;18.40;;;12.50;;
51724;SDS011;37801;53.224;6.552;2022-10-31T01:49:20;18.02;;;11.57;;
51724;SDS011;37801;53.224;6.552;2022-10-31T01:51:48;19.10;;;11.55;;
51724;SDS011;37801;53.224;6.552;2022-10-31T01:54:20;17.38;;;11.57;;
51724;SDS011;37801;53.224;6.552;2022-10-31T01:56:48;18.98;;;11.82;;
51724;SDS011;37801;53.224;6.552;2022-10-31T01:59:17;19.27;;;12.05;;
51724;SDS011;37801;53.224;6.552;2022-10-31T02:01:46;18.35;;;11.90;;
51724;SDS011;37801;53.224;6.552;2022-10-31T02:04:12;18.05;;;11.15;;
51724;SDS011;37801;53.224;6.552;2022-10-31T02:06:44;17.75;;;11.75;;
51724;SDS011;37801;53.224;6.552;2022-10-31T02:09:14;17.75;;;12.18;;
51724;SDS011;37801;53.224;6.552;2022-10-31T02:11:41;17.88;;;11.77;;
51724;SDS011;37801;53.224;6.552;2022-10-31T02:14:09;16.13;;;10.73;;
51724;SDS011;37801;53.224;6.552;2022-10-31T02:16:35;19.45;;;11.82;;
51724;SDS011;37801;53.224;6.552;2022-10-31T02:19:01;18.50;;;11.80;;
51724;SDS011;37801;53.224;6.552;2022-10-31T02:26:54;21.20;;;13.40;;
51724;SDS011;37801;53.224;6.552;2022-10-31T02:38:08;16.35;;;11.57;;
51724;SDS011;37801;53.224;6.552;2022-10-31T02:43:36;17.83;;;11.93;;
51724;SDS011;37801;53.224;6.552;2022-10-31T02:46:24;21.10;;;11.75;;
51724;SDS011;37801;53.224;6.552;2022-10-31T02:49:00;17.05;;;12.07;;
51724;SDS011;37801;53.224;6.552;2022-10-31T02:51:37;19.63;;;12.35;;
51724;SDS011;37801;53.224;6.552;2022-10-31T02:54:04;18.80;;;12.43;;
51724;SDS011;37801;53.224;6.552;2022-10-31T02:56:30;18.55;;;12.85;;
51724;SDS011;37801;53.224;6.552;2022-10-31T02:59:02;20.02;;;12.93;;
51724;SDS011;37801;53.224;6.552;2022-10-31T03:06:57;21.55;;;12.32;;
51724;SDS011;37801;53.224;6.552;2022-10-31T03:12:28;19.50;;;12.95;;
51724;SDS011;37801;53.224;6.552;2022-10-31T03:15:12;18.30;;;12.45;;
51724;SDS011;37801;53.224;6.552;2022-10-31T03:17:45;19.92;;;13.00;;
51724;SDS011;37801;53.224;6.552;2022-10-31T03:20:12;18.98;;;11.93;;
51724;SDS011;37801;53.224;6.552;2022-10-31T03:22:39;20.15;;;13.52;;
51724;SDS011;37801;53.224;6.552;2022-10-31T03:25:07;22.05;;;13.30;;
51724;SDS011;37801;53.224;6.552;2022-10-31T03:27:34;23.30;;;13.68;;
51724;SDS011;37801;53.224;6.552;2022-10-31T03:30:03;22.20;;;12.82;;
51724;SDS011;37801;53.224;6.552;2022-10-31T03:32:34;19.50;;;12.80;;
51724;SDS011;37801;53.224;6.552;2022-10-31T03:35:05;19.30;;;12.83;;
51724;SDS011;37801;53.224;6.552;2022-10-31T03:37:33;18.25;;;12.68;;
51724;SDS011;37801;53.224;6.552;2022-10-31T03:40:01;17.75;;;11.95;;
51724;SDS011;37801;53.224;6.552;2022-10-31T03:42:30;18.27;;;11.55;;
51724;SDS011;37801;53.224;6.552;2022-10-31T03:45:00;17.08;;;11.73;;
51724;SDS011;37801;53.224;6.552;2022-10-31T03:47:31;17.58;;;12.48;;
51724;SDS011;37801;53.224;6.552;2022-10-31T03:49:58;19.52;;;12.63;;
51724;SDS011;37801;53.224;6.552;2022-10-31T03:52:28;19.98;;;12.63;;
51724;SDS011;37801;53.224;6.552;2022-10-31T03:55:17;20.30;;;12.13;;
51724;SDS011;37801;53.224;6.552;2022-10-31T04:00:50;18.58;;;11.27;;
51724;SDS011;37801;53.224;6.552;2022-10-31T04:03:19;20.40;;;11.90;;
51724;SDS011;37801;53.224;6.552;2022-10-31T04:05:58;16.33;;;12.02;;
51724;SDS011;37801;53.224;6.552;2022-10-31T04:08:28;16.70;;;11.32;;
51724;SDS011;37801;53.224;6.552;2022-10-31T04:10:57;20.15;;;12.20;;
51724;SDS011;37801;53.224;6.552;2022-10-31T04:13:27;24.02;;;11.32;;
51724;SDS011;37801;53.224;6.552;2022-10-31T04:15:54;19.88;;;11.85;;
51724;SDS011;37801;53.224;6.552;2022-10-31T04:18:24;15.38;;;10.50;;
51724;SDS011;37801;53.224;6.552;2022-10-31T04:20:58;17.58;;;12.05;;
51724;SDS011;37801;53.224;6.552;2022-10-31T04:23:28;20.27;;;11.57;;
51724;SDS011;37801;53.224;6.552;2022-10-31T04:25:55;16.73;;;10.95;;
51724;SDS011;37801;53.224;6.552;2022-10-31T04:28:21;16.88;;;11.23;;
51724;SDS011;37801;53.224;6.552;2022-10-31T04:30:47;19.48;;;12.05;;
51724;SDS011;37801;53.224;6.552;2022-10-31T04:33:13;18.15;;;11.43;;
51724;SDS011;37801;53.224;6.552;2022-10-31T04:35:39;18.58;;;11.85;;
51724;SDS011;37801;53.224;6.552;2022-10-31T04:38:05;20.05;;;11.48;;
51724;SDS011;37801;53.224;6.552;2022-10-31T04:40:31;19.27;;;11.98;;
51724;SDS011;37801;53.224;6.552;2022-10-31T04:42:57;17.70;;;11.18;;
51724;SDS011;37801;53.224;6.552;2022-10-31T04:45:22;16.13;;;10.98;;
51724;SDS011;37801;53.224;6.552;2022-10-31T04:47:48;17.80;;;11.98;;
51724;SDS011;37801;53.224;6.552;2022-10-31T04:50:14;18.63;;;11.35;;
51724;SDS011;37801;53.224;6.552;2022-10-31T04:52:40;16.67;;;11.15;;
51724;SDS011;37801;53.224;6.552;2022-10-31T04:55:10;17.42;;;11.68;;
51724;SDS011;37801;53.224;6.552;2022-10-31T04:57:43;18.25;;;10.73;;
51724;SDS011;37801;53.224;6.552;2022-10-31T05:00:10;17.38;;;11.80;;
51724;SDS011;37801;53.224;6.552;2022-10-31T05:02:45;16.30;;;11.70;;
51724;SDS011;37801;53.224;6.552;2022-10-31T05:05:16;15.88;;;11.40;;
51724;SDS011;37801;53.224;6.552;2022-10-31T05:07:44;16.55;;;10.88;;
51724;SDS011;37801;53.224;6.552;2022-10-31T05:10:11;17.40;;;11.07;;
51724;SDS011;37801;53.224;6.552;2022-10-31T05:12:46;18.10;;;11.63;;
51724;SDS011;37801;53.224;6.552;2022-10-31T05:15:20;18.35;;;11.57;;
51724;SDS011;37801;53.224;6.552;2022-10-31T05:17:47;17.85;;;11.65;;
51724;SDS011;37801;53.224;6.552;2022-10-31T05:20:13;18.35;;;11.55;;
51724;SDS011;37801;53.224;6.552;2022-10-31T05:22:41;18.55;;;11.13;;
51724;SDS011;37801;53.224;6.552;2022-10-31T05:25:11;17.38;;;11.57;;
51724;SDS011;37801;53.224;6.552;2022-10-31T05:27:38;16.33;;;11.40;;
51724;SDS011;37801;53.224;6.552;2022-10-31T05:30:08;16.58;;;11.43;;
51724;SDS011;37801;53.224;6.552;2022-10-31T05:32:46;17.05;;;11.40;;
51724;SDS011;37801;53.224;6.552;2022-10-31T05:35:14;19.17;;;11.75;;
51724;SDS011;37801;53.224;6.552;2022-10-31T05:37:41;16.90;;;11.50;;
51724;SDS011;37801;53.224;6.552;2022-10-31T05:40:08;18.38;;;11.98;;
51724;SDS011;37801;53.224;6.552;2022-10-31T05:42:37;15.80;;;11.65;;
51724;SDS011;37801;53.224;6.552;2022-10-31T05:45:04;19.63;;;12.25;;
51724;SDS011;37801;53.224;6.552;2022-10-31T05:47:31;20.85;;;12.10;;
51724;SDS011;37801;53.224;6.552;2022-10-31T05:49:56;20.42;;;13.23;;
51724;SDS011;37801;53.224;6.552;2022-10-31T05:52:22;17.35;;;12.38;;
51724;SDS011;37801;53.224;6.552;2022-10-31T05:54:48;16.67;;;11.98;;
51724;SDS011;37801;53.224;6.552;2022-10-31T05:57:13;18.63;;;12.32;;
51724;SDS011;37801;53.224;6.552;2022-10-31T05:59:39;17.83;;;12.20;;
51724;SDS011;37801;53.224;6.552;2022-10-31T06:02:05;18.15;;;12.10;;
51724;SDS011;37801;53.224;6.552;2022-10-31T06:04:30;16.15;;;11.68;;
51724;SDS011;37801;53.224;6.552;2022-10-31T06:06:57;16.52;;;11.90;;
51724;SDS011;37801;53.224;6.552;2022-10-31T06:09:22;16.42;;;11.43;;
51724;SDS011;37801;53.224;6.552;2022-10-31T06:11:48;16.83;;;11.52;;
51724;SDS011;37801;53.224;6.552;2022-10-31T06:14:14;17.85;;;11.90;;
51724;SDS011;37801;53.224;6.552;2022-10-31T06:16:39;18.98;;;11.45;;
51724;SDS011;37801;53.224;6.552;2022-10-31T06:19:05;18.25;;;11.52;;
51724;SDS011;37801;53.224;6.552;2022-10-31T06:21:31;16.77;;;12.02;;
51724;SDS011;37801;53.224;6.552;2022-10-31T06:23:57;15.82;;;11.68;;
51724;SDS011;37801;53.224;6.552;2022-10-31T06:26:22;19.90;;;11.93;;
51724;SDS011;37801;53.224;6.552;2022-10-31T06:28:48;15.70;;;11.55;;
51724;SDS011;37801;53.224;6.552;2022-10-31T06:31:14;16.15;;;11.63;;
51724;SDS011;37801;53.224;6.552;2022-10-31T06:33:42;18.58;;;12.15;;
51724;SDS011;37801;53.224;6.552;2022-10-31T06:36:09;18.77;;;11.80;;
51724;SDS011;37801;53.224;6.552;2022-10-31T06:38:35;19.75;;;12.43;;
51724;SDS011;37801;53.224;6.552;2022-10-31T06:41:04;17.35;;;12.15;;
51724;SDS011;37801;53.224;6.552;2022-10-31T06:43:30;19.25;;;11.98;;
51724;SDS011;37801;53.224;6.552;2022-10-31T06:45:57;17.20;;;11.73;;
51724;SDS011;37801;53.224;6.552;2022-10-31T06:48:23;17.75;;;12.30;;
51724;SDS011;37801;53.224;6.552;2022-10-31T06:50:49;19.05;;;12.00;;
51724;SDS011;37801;53.224;6.552;2022-10-31T06:53:14;16.42;;;11.75;;
51724;SDS011;37801;53.224;6.552;2022-10-31T06:55:40;14.77;;;10.60;;
51724;SDS011;37801;53.224;6.552;2022-10-31T06:58:08;16.92;;;11.32;;
51724;SDS011;37801;53.224;6.552;2022-10-31T07:00:35;17.98;;;12.00;;
51724;SDS011;37801;53.224;6.552;2022-10-31T07:03:05;18.45;;;11.65;;
51724;SDS011;37801;53.224;6.552;2022-10-31T07:05:34;17.92;;;11.40;;
51724;SDS011;37801;53.224;6.552;2022-10-31T07:08:00;16.92;;;11.60;;
51724;SDS011;37801;53.224;6.552;2022-10-31T07:10:28;16.75;;;11.93;;
51724;SDS011;37801;53.224;6.552;2022-10-31T07:12:56;15.18;;;11.48;;
51724;SDS011;37801;53.224;6.552;2022-10-31T07:15:24;17.38;;;11.73;;
51724;SDS011;37801;53.224;6.552;2022-10-31T07:17:50;18.63;;;13.30;;
51724;SDS011;37801;53.224;6.552;2022-10-31T07:20:16;17.00;;;12.45;;
51724;SDS011;37801;53.224;6.552;2022-10-31T07:22:42;17.55;;;12.25;;
51724;SDS011;37801;53.224;6.552;2022-10-31T07:25:08;18.45;;;11.68;;
51724;SDS011;37801;53.224;6.552;2022-10-31T07:30:04;16.30;;;11.35;;
51724;SDS011;37801;53.224;6.552;2022-10-31T07:32:37;17.35;;;10.85;;
51724;SDS011;37801;53.224;6.552;2022-10-31T07:37:30;16.45;;;10.65;;
51724;SDS011;37801;53.224;6.552;2022-10-31T07:39:56;15.32;;;10.65;;
51724;SDS011;37801;53.224;6.552;2022-10-31T07:42:21;15.18;;;10.68;;
51724;SDS011;37801;53.224;6.552;2022-10-31T07:44:47;16.05;;;10.98;;
51724;SDS011;37801;53.224;6.552;2022-10-31T07:47:13;17.27;;;11.30;;
51724;SDS011;37801;53.224;6.552;2022-10-31T07:49:38;19.48;;;11.15;;
51724;SDS011;37801;53.224;6.552;2022-10-31T07:52:04;17.05;;;10.85;;
51724;SDS011;37801;53.224;6.552;2022-10-31T07:54:29;17.70;;;11.88;;
51724;SDS011;37801;53.224;6.552;2022-10-31T07:56:55;17.33;;;11.82;;
51724;SDS011;37801;53.224;6.552;2022-10-31T07:59:21;18.23;;;12.77;;
51724;SDS011;37801;53.224;6.552;2022-10-31T08:01:46;16.23;;;11.15;;
51724;SDS011;37801;53.224;6.552;2022-10-31T08:04:12;19.17;;;12.43;;
51724;SDS011;37801;53.224;6.552;2022-10-31T08:06:38;19.65;;;12.57;;
51724;SDS011;37801;53.224;6.552;2022-10-31T08:09:03;16.30;;;11.63;;
51724;SDS011;37801;53.224;6.552;2022-10-31T08:11:29;17.80;;;12.73;;
51724;SDS011;37801;53.224;6.552;2022-10-31T08:13:55;21.48;;;12.02;;
51724;SDS011;37801;53.224;6.552;2022-10-31T08:16:20;16.52;;;11.75;;
51724;SDS011;37801;53.224;6.552;2022-10-31T08:18:46;15.57;;;11.85;;
51724;SDS011;37801;53.224;6.552;2022-10-31T08:21:12;17.52;;;12.00;;
51724;SDS011;37801;53.224;6.552;2022-10-31T08:23:38;19.73;;;12.93;;
51724;SDS011;37801;53.224;6.552;2022-10-31T08:26:04;18.05;;;12.32;;
51724;SDS011;37801;53.224;6.552;2022-10-31T08:28:31;18.88;;;12.80;;
51724;SDS011;37801;53.224;6.552;2022-10-31T08:30:57;16.83;;;12.38;;
51724;SDS011;37801;53.224;6.552;2022-10-31T08:33:23;16.25;;;12.02;;
51724;SDS011;37801;53.224;6.552;2022-10-31T08:35:49;16.92;;;12.20;;
51724;SDS011;37801;53.224;6.552;2022-10-31T08:38:15;15.48;;;11.63;;
51724;SDS011;37801;53.224;6.552;2022-10-31T08:40:41;18.85;;;11.90;;
51724;SDS011;37801;53.224;6.552;2022-10-31T08:43:11;16.80;;;11.82;;
51724;SDS011;37801;53.224;6.552;2022-10-31T08:45:38;14.23;;;10.77;;
51724;SDS011;37801;53.224;6.552;2022-10-31T08:48:04;18.10;;;12.50;;
51724;SDS011;37801;53.224;6.552;2022-10-31T08:50:32;16.88;;;11.35;;
51724;SDS011;37801;53.224;6.552;2022-10-31T08:53:00;17.02;;;11.25;;
51724;SDS011;37801;53.224;6.552;2022-10-31T08:55:31;15.75;;;11.55;;
51724;SDS011;37801;53.224;6.552;2022-10-31T08:57:58;16.83;;;10.73;;
51724;SDS011;37801;53.224;6.552;2022-10-31T09:00:24;14.48;;;11.27;;
51724;SDS011;37801;53.224;6.552;2022-10-31T09:03:00;15.93;;;11.25;;
51724;SDS011;37801;53.224;6.552;2022-10-31T09:05:27;15.88;;;10.82;;
51724;SDS011;37801;53.224;6.552;2022-10-31T09:07:56;14.82;;;10.60;;
51724;SDS011;37801;53.224;6.552;2022-10-31T09:10:23;16.17;;;11.13;;
51724;SDS011;37801;53.224;6.552;2022-10-31T09:15:33;15.82;;;10.57;;
51724;SDS011;37801;53.224;6.552;2022-10-31T09:18:00;13.85;;;10.18;;
51724;SDS011;37801;53.224;6.552;2022-10-31T09:20:26;14.82;;;9.77;;
51724;SDS011;37801;53.224;6.552;2022-10-31T09:23:06;14.45;;;10.43;;
51724;SDS011;37801;53.224;6.552;2022-10-31T09:25:34;14.43;;;10.45;;
51724;SDS011;37801;53.224;6.552;2022-10-31T09:28:01;16.52;;;10.50;;
51724;SDS011;37801;53.224;6.552;2022-10-31T09:30:29;15.18;;;10.80;;
51724;SDS011;37801;53.224;6.552;2022-10-31T09:32:57;15.57;;;10.05;;
51724;SDS011;37801;53.224;6.552;2022-10-31T09:35:27;15.30;;;10.20;;
51724;SDS011;37801;53.224;6.552;2022-10-31T09:37:57;14.48;;;10.15;;
51724;SDS011;37801;53.224;6.552;2022-10-31T09:40:25;14.82;;;10.50;;
51724;SDS011;37801;53.224;6.552;2022-10-31T09:42:58;20.20;;;10.35;;
51724;SDS011;37801;53.224;6.552;2022-10-31T09:51:29;13.45;;;9.75;;
51724;SDS011;37801;53.224;6.552;2022-10-31T09:54:04;14.10;;;10.23;;
51724;SDS011;37801;53.224;6.552;2022-10-31T09:56:35;14.18;;;9.82;;
51724;SDS011;37801;53.224;6.552;2022-10-31T09:59:03;15.52;;;10.02;;
51724;SDS011;37801;53.224;6.552;2022-10-31T10:04:26;13.32;;;9.88;;
51724;SDS011;37801;53.224;6.552;2022-10-31T10:06:56;15.35;;;10.15;;
51724;SDS011;37801;53.224;6.552;2022-10-31T10:09:27;15.88;;;10.88;;
51724;SDS011;37801;53.224;6.552;2022-10-31T10:25:09;12.95;;;9.63;;
51724;SDS011;37801;53.224;6.552;2022-10-31T10:30:22;14.93;;;10.25;;
51724;SDS011;37801;53.224;6.552;2022-10-31T10:32:58;15.48;;;10.20;;
51724;SDS011;37801;53.224;6.552;2022-10-31T10:35:29;13.93;;;9.90;;
51724;SDS011;37801;53.224;6.552;2022-10-31T10:38:03;14.00;;;9.82;;
51724;SDS011;37801;53.224;6.552;2022-10-31T10:40:44;16.20;;;10.02;;
51724;SDS011;37801;53.224;6.552;2022-10-31T10:45:53;16.17;;;10.90;;
51724;SDS011;37801;53.224;6.552;2022-10-31T10:59:49;14.18;;;10.73;;
51724;SDS011;37801;53.224;6.552;2022-10-31T11:02:26;15.27;;;11.38;;
51724;SDS011;37801;53.224;6.552;2022-10-31T11:04:56;20.20;;;11.75;;
51724;SDS011;37801;53.224;6.552;2022-10-31T11:07:23;18.25;;;13.45;;
51724;SDS011;37801;53.224;6.552;2022-10-31T11:09:49;20.13;;;14.07;;
51724;SDS011;37801;53.224;6.552;2022-10-31T11:14:45;22.38;;;14.15;;
51724;SDS011;37801;53.224;6.552;2022-10-31T11:17:22;17.90;;;13.07;;
51724;SDS011;37801;53.224;6.552;2022-10-31T11:20:00;16.40;;;12.15;;
51724;SDS011;37801;53.224;6.552;2022-10-31T11:22:29;17.90;;;12.60;;
51724;SDS011;37801;53.224;6.552;2022-10-31T11:24:55;17.08;;;12.38;;
51724;SDS011;37801;53.224;6.552;2022-10-31T11:27:22;17.38;;;11.80;;
51724;SDS011;37801;53.224;6.552;2022-10-31T11:29:49;17.73;;;10.80;;
51724;SDS011;37801;53.224;6.552;2022-10-31T11:32:17;16.38;;;10.32;;
51724;SDS011;37801;53.224;6.552;2022-10-31T11:34:50;13.43;;;9.75;;
51724;SDS011;37801;53.224;6.552;2022-10-31T11:37:22;14.73;;;10.68;;
51724;SDS011;37801;53.224;6.552;2022-10-31T11:40:00;15.85;;;9.85;;
51724;SDS011;37801;53.224;6.552;2022-10-31T11:42:30;15.60;;;10.05;;
51724;SDS011;37801;53.224;6.552;2022-10-31T11:45:06;13.57;;;9.93;;
51724;SDS011;37801;53.224;6.552;2022-10-31T11:47:41;13.90;;;8.57;;
51724;SDS011;37801;53.224;6.552;2022-10-31T11:50:11;13.20;;;9.10;;
51724;SDS011;37801;53.224;6.552;2022-10-31T11:52:43;12.45;;;8.23;;
51724;SDS011;37801;53.224;6.552;2022-10-31T11:57:51;13.13;;;7.53;;
51724;SDS011;37801;53.224;6.552;2022-10-31T12:00:32;12.50;;;7.25;;
51724;SDS011;37801;53.224;6.552;2022-10-31T12:03:26;9.57;;;6.50;;
51724;SDS011;37801;53.224;6.552;2022-10-31T12:08:43;8.70;;;5.72;;
51724;SDS011;37801;53.224;6.552;2022-10-31T12:14:06;10.93;;;5.53;;
51724;SDS011;37801;53.224;6.552;2022-10-31T12:16:49;11.75;;;5.28;;
51724;SDS011;37801;53.224;6.552;2022-10-31T12:38:35;13.15;;;6.90;;
51724;SDS011;37801;53.224;6.552;2022-10-31T12:44:13;14.57;;;6.75;;
51724;SDS011;37801;53.224;6.552;2022-10-31T12:55:10;10.63;;;6.38;;
51724;SDS011;37801;53.224;6.552;2022-10-31T12:57:47;12.27;;;5.50;;
51724;SDS011;37801;53.224;6.552;2022-10-31T13:00:18;10.20;;;5.88;;
51724;SDS011;37801;53.224;6.552;2022-10-31T13:02:58;10.20;;;5.47;;
51724;SDS011;37801;53.224;6.552;2022-10-31T13:05:31;13.05;;;4.90;;
51724;SDS011;37801;53.224;6.552;2022-10-31T13:13:16;10.25;;;5.05;;
51724;SDS011;37801;53.224;6.552;2022-10-31T13:15:53;11.50;;;4.97;;
51724;SDS011;37801;53.224;6.552;2022-10-31T13:18:33;10.80;;;4.47;;
51724;SDS011;37801;53.224;6.552;2022-10-31T13:21:20;10.65;;;3.95;;
51724;SDS011;37801;53.224;6.552;2022-10-31T13:23:50;9.75;;;4.00;;
51724;SDS011;37801;53.224;6.552;2022-10-31T13:29:13;9.32;;;3.35;;
51724;SDS011;37801;53.224;6.552;2022-10-31T13:31:41;7.82;;;3.22;;
51724;SDS011;37801;53.224;6.552;2022-10-31T13:34:51;8.55;;;3.90;;
51724;SDS011;37801;53.224;6.552;2022-10-31T13:39:50;7.82;;;3.75;;
51724;SDS011;37801;53.224;6.552;2022-10-31T13:45:24;7.78;;;3.65;;
51724;SDS011;37801;53.224;6.552;2022-10-31T13:48:01;8.25;;;4.07;;
51724;SDS011;37801;53.224;6.552;2022-10-31T13:50:54;11.15;;;3.97;;
51724;SDS011;37801;53.224;6.552;2022-10-31T13:53:38;10.52;;;3.65;;
51724;SDS011;37801;53.224;6.552;2022-10-31T13:58:33;7.72;;;3.50;;
51724;SDS011;37801;53.224;6.552;2022-10-31T14:03:38;10.40;;;3.83;;
51724;SDS011;37801;53.224;6.552;2022-10-31T14:06:05;8.27;;;3.78;;
51724;SDS011;37801;53.224;6.552;2022-10-31T14:08:34;8.85;;;4.60;;
51724;SDS011;37801;53.224;6.552;2022-10-31T14:11:02;9.30;;;4.07;;
51724;SDS011;37801;53.224;6.552;2022-10-31T14:13:40;9.30;;;3.75;;
51724;SDS011;37801;53.224;6.552;2022-10-31T14:16:25;11.70;;;3.58;;
51724;SDS011;37801;53.224;6.552;2022-10-31T14:18:58;8.48;;;3.95;;
51724;SDS011;37801;53.224;6.552;2022-10-31T14:23:54;10.88;;;4.28;;
51724;SDS011;37801;53.224;6.552;2022-10-31T14:28:52;13.43;;;4.68;;
51724;SDS011;37801;53.224;6.552;2022-10-31T14:31:30;11.50;;;5.57;;
51724;SDS011;37801;53.224;6.552;2022-10-31T14:34:01;11.93;;;5.80;;
51724;SDS011;37801;53.224;6.552;2022-10-31T14:39:21;10.15;;;6.13;;
51724;SDS011;37801;53.224;6.552;2022-10-31T14:44:41;11.52;;;6.05;;
51724;SDS011;37801;53.224;6.552;2022-10-31T14:52:37;12.20;;;5.45;;
51724;SDS011;37801;53.224;6.552;2022-10-31T14:55:05;14.25;;;5.18;;
51724;SDS011;37801;53.224;6.552;2022-10-31T14:57:35;8.93;;;5.03;;
51724;SDS011;37801;53.224;6.552;2022-10-31T15:00:15;11.13;;;4.82;;
51724;SDS011;37801;53.224;6.552;2022-10-31T15:08:12;11.75;;;4.85;;
51724;SDS011;37801;53.224;6.552;2022-10-31T15:10:50;8.27;;;4.13;;
51724;SDS011;37801;53.224;6.552;2022-10-31T15:13:20;12.45;;;4.68;;
51724;SDS011;37801;53.224;6.552;2022-10-31T15:15:47;12.38;;;4.63;;
51724;SDS011;37801;53.224;6.552;2022-10-31T15:18:18;9.60;;;4.68;;
51724;SDS011;37801;53.224;6.552;2022-10-31T15:20:46;8.13;;;4.47;;
51724;SDS011;37801;53.224;6.552;2022-10-31T15:23:23;8.10;;;4.07;;
51724;SDS011;37801;53.224;6.552;2022-10-31T15:26:00;11.65;;;4.65;;
51724;SDS011;37801;53.224;6.552;2022-10-31T15:28:28;10.50;;;5.15;;
51724;SDS011;37801;53.224;6.552;2022-10-31T15:30:59;12.82;;;5.57;;
51724;SDS011;37801;53.224;6.552;2022-10-31T15:33:28;9.13;;;5.30;;
51724;SDS011;37801;53.224;6.552;2022-10-31T15:35:58;13.60;;;6.40;;
51724;SDS011;37801;53.224;6.552;2022-10-31T15:38:25;10.85;;;6.28;;
51724;SDS011;37801;53.224;6.552;2022-10-31T15:40:56;13.63;;;6.88;;
51724;SDS011;37801;53.224;6.552;2022-10-31T15:43:44;12.68;;;6.85;;
51724;SDS011;37801;53.224;6.552;2022-10-31T15:46:11;12.13;;;6.65;;
51724;SDS011;37801;53.224;6.552;2022-10-31T15:48:36;13.32;;;7.32;;
51724;SDS011;37801;53.224;6.552;2022-10-31T15:51:04;11.35;;;7.43;;
51724;SDS011;37801;53.224;6.552;2022-10-31T15:53:37;12.85;;;7.03;;
51724;SDS011;37801;53.224;6.552;2022-10-31T15:56:08;15.10;;;7.35;;
51724;SDS011;37801;53.224;6.552;2022-10-31T15:58:44;12.90;;;7.72;;
51724;SDS011;37801;53.224;6.552;2022-10-31T16:01:20;13.43;;;8.18;;
51724;SDS011;37801;53.224;6.552;2022-10-31T16:06:37;14.63;;;8.40;;
51724;SDS011;37801;53.224;6.552;2022-10-31T16:09:03;13.30;;;7.80;;
51724;SDS011;37801;53.224;6.552;2022-10-31T16:11:45;13.32;;;7.88;;
51724;SDS011;37801;53.224;6.552;2022-10-31T16:16:43;17.48;;;9.25;;
51724;SDS011;37801;53.224;6.552;2022-10-31T16:22:02;13.13;;;8.10;;
51724;SDS011;37801;53.224;6.552;2022-10-31T16:27:25;13.73;;;7.10;;
51724;SDS011;37801;53.224;6.552;2022-10-31T16:29:54;14.25;;;7.38;;
51724;SDS011;37801;53.224;6.552;2022-10-31T16:32:51;13.23;;;7.40;;
51724;SDS011;37801;53.224;6.552;2022-10-31T16:35:27;14.05;;;7.80;;
51724;SDS011;37801;53.224;6.552;2022-10-31T16:37:57;13.93;;;7.90;;
51724;SDS011;37801;53.224;6.552;2022-10-31T16:40:23;12.15;;;7.47;;
51724;SDS011;37801;53.224;6.552;2022-10-31T16:42:49;13.05;;;7.25;;
51724;SDS011;37801;53.224;6.552;2022-10-31T16:45:27;11.13;;;7.50;;
51724;SDS011;37801;53.224;6.552;2022-10-31T16:48:01;12.98;;;7.43;;
51724;SDS011;37801;53.224;6.552;2022-10-31T16:50:29;11.77;;;6.80;;
51724;SDS011;37801;53.224;6.552;2022-10-31T16:52:55;10.02;;;6.47;;
51724;SDS011;37801;53.224;6.552;2022-10-31T16:55:21;8.30;;;5.95;;
51724;SDS011;37801;53.224;6.552;2022-10-31T16:57:50;12.68;;;6.45;;
51724;SDS011;37801;53.224;6.552;2022-10-31T17:00:22;12.52;;;6.70;;
51724;SDS011;37801;53.224;6.552;2022-10-31T17:02:50;11.93;;;6.65;;
51724;SDS011;37801;53.224;6.552;2022-10-31T17:05:17;10.68;;;6.90;;
51724;SDS011;37801;53.224;6.552;2022-10-31T17:07:44;14.05;;;7.60;;
51724;SDS011;37801;53.224;6.552;2022-10-31T17:10:10;10.18;;;6.88;;
51724;SDS011;37801;53.224;6.552;2022-10-31T17:12:38;12.73;;;7.40;;
51724;SDS011;37801;53.224;6.552;2022-10-31T17:15:13;12.25;;;7.25;;
51724;SDS011;37801;53.224;6.552;2022-10-31T17:17:48;12.30;;;7.85;;
51724;SDS011;37801;53.224;6.552;2022-10-31T17:20:18;11.43;;;7.35;;
51724;SDS011;37801;53.224;6.552;2022-10-31T17:22:49;13.52;;;7.97;;
51724;SDS011;37801;53.224;6.552;2022-10-31T17:25:19;12.75;;;7.97;;
51724;SDS011;37801;53.224;6.552;2022-10-31T17:27:47;11.93;;;7.88;;
51724;SDS011;37801;53.224;6.552;2022-10-31T17:30:13;15.07;;;7.88;;